METAR、SPECI、TAF(飛行場実況・予報)


■ METAR、SPECI(飛行場実況)

METAR RJBB 261700Z AUTO 16009KT 9999 SCT050 BKN110 OVC130 22/16 Q1007 NOSIG RMK A2976
METAR RJBB 261730Z AUTO 17010KT 9999 FEW050 SCT090 BKN120 22/16 Q1007 NOSIG RMK A2976
METAR RJBB 261800Z AUTO 18009KT 9999 -RA NSC 22/17 Q1007 NOSIG RMK A2975
METAR RJBB 261830Z AUTO 19007KT 9999 -RA NSC 22/16 Q1007 NOSIG RMK A2975
METAR RJBB 261900Z AUTO 18012KT 9999 -RA FEW044 SCT070 BKN080 22/16 Q1007 NOSIG RMK A2974
METAR RJBB 261930Z AUTO 17012KT 9999 NSC 21/16 Q1007 NOSIG RMK A2974
METAR RJBB 262000Z AUTO 14007KT 090V180 9999 -RA FEW050 BKN080 OVC100 21/17 Q1006 BECMG 16008KT TEMPO SHRA RMK A2973
METAR RJBB 262030Z AUTO 15008KT 9999 -RA FEW030 BKN070 OVC080 21/17 Q1006 TEMPO SHRA RMK A2972
METAR RJBB 262100Z VRB02KT 9000 -SHRA FEW015 SCT040 BKN070 21/17 Q1006 BECMG 16008KT TEMPO SHRA RMK 1CU015 3CU040 6AC070 A2973
METAR RJBB 262130Z 14006KT 100V210 8000 -SHRA FEW015 SCT035 BKN070 21/18 Q1006 BECMG 16008KT TEMPO SHRA RMK 1CU015 3CU035 5AC070 A2972
SPECI RJBB 262138Z 16008KT 6000 SHRA BR FEW015 SCT030 BKN070 21/18 Q1006 RMK 1CU015 4CU030 5AC070 A2972
SPECI RJBB 262207Z 15007KT 6000 SHRA BR FEW010 SCT020 BKN045 21/19 Q1005 RMK 1ST010 3CU020 5CU045 A2970
METAR RJBB 262200Z 16009KT 7000 -SHRA BR FEW010 SCT025 BKN070 20/18 Q1006 TEMPO SHRA RMK 1ST010 4CU025 5AC070 A2971
SPECI RJBB 262211Z 15006KT 4000 SHRA BR FEW010 SCT020 BKN045 20/19 Q1006 RMK 1ST010 3CU020 5CU045 A2971
SPECI RJBB 262217Z VRB04KT 3000 +SHRA BR FEW008 SCT015 BKN040 20/18 Q1006 RMK 1ST008 3CU015 5CU040 A2971
SPECI RJBB 262221Z 18014KT 3500 R24L/P2000N R24R/2000N +SHRA BR FEW008 SCT015 BKN040 20/18 Q1006 RMK 1ST008 3CU015 5CU040 A2971
METAR RJBB 262230Z 20009KT 6000 SHRA BR FEW008 SCT015 BKN040 21/19 Q1005 NOSIG RMK 1ST008 3CU015 5CU040 A2970
SPECI RJBB 262247Z 16008KT 8000 -SHRA FEW010 SCT020 BKN040 21/19 Q1005 RMK 1ST010 3CU020 5CU040 A2970
METAR RJBB 262300Z 15007KT 9999 -SHRA FEW010 BKN040 BKN070 21/19 Q1006 NOSIG RMK 1ST010 5CU040 7AC070 A2971
METAR RJBB 262330Z 06008KT 030V110 9000 -SHRA FEW005 BKN035 BKN070 19/18 Q1005 BECMG 15008KT RMK 1ST005 5CU035 6AC070 A2970
METAR RJBB 270000Z 04010KT 2000 +SHRA BR FEW005 SCT015 BKN025 19/18 Q1005 BECMG 9000 -SHRA RMK 1ST005 3CU015 5CU025 A2970
METAR RJBB 270030Z 07009KT 3000 R24L/2000N R24R/2000N SHRA BR FEW005 SCT025 BKN035 19/18 Q1005 BECMG 9000 -SHRA RMK 1ST005 4CU025 6CU035 A2969
SPECI RJBB 270041Z 03010KT 4500 R06R/P2000N R06L/P2000N -SHRA BR FEW005 SCT025 BKN035 19/18 Q1005 RMK 1ST005 4CU025 6CU035 A2969
METAR RJBB 270100Z 05007KT 6000 -SHRA BR FEW005 SCT015 BKN035 19/19 Q1005 NOSIG RMK 1ST005 3CU015 5CU035 A2970
SPECI RJBB 270125Z 05009KT 4500 -SHRA BR FEW005 BKN015 BKN035 19/19 Q1005 RMK 1ST005 5CU015 6CU035 A2969
METAR RJBB 270130Z 06008KT 3500 -SHRA BR FEW005 BKN015 BKN035 20/19 Q1005 BECMG 9000 -SHRA RMK 1ST005 5CU015 6CU035 A2969
SPECI RJBB 270142Z 05006KT 7000 -SHRA BR FEW005 SCT015 BKN035 19/19 Q1005 RMK 1ST005 4CU015 6CU035 A2969
METAR RJBB 270200Z 04008KT 7000 -SHRA BR FEW005 BKN015 BKN035 19/19 Q1005 TEMPO 4000 -SHRA BR RMK 1ST005 5CU015 6CU035 A2968
METAR RJBB 270230Z 03007KT 9000 FEW005 BKN015 BKN035 19/19 Q1004 NOSIG RMK 1ST005 5CU015 6CU035 A2967
METAR RJBB 270300Z 03007KT 9999 FEW005 BKN015 BKN035 19/19 Q1004 NOSIG RMK 1ST005 5CU015 6CU035 A2966
METAR RJBB 270330Z 04008KT 9999 FEW005 SCT015 BKN035 20/19 Q1004 NOSIG RMK 1ST005 3CU015 6CU035 A2966
METAR RJBB 270400Z 03008KT 9999 FEW015 BKN/// 20/20 Q1003 NOSIG RMK 1CU015 A2964
METAR RJBB 270430Z 03007KT 9999 FEW015 BKN/// 21/20 Q1003 NOSIG RMK 1CU015 A2964
METAR RJBB 270500Z 03009KT 9999 FEW015 SCT040 BKN/// 21/20 Q1003 NOSIG RMK 1CU015 3CU040 A2964
METAR RJBB 270530Z 02006KT 9999 FEW015 SCT040 BKN070 21/20 Q1003 NOSIG RMK 1CU015 3CU040 5AC070 A2964
METAR RJBB 270600Z 04005KT 9999 FEW015 SCT070 BKN180 22/20 Q1003 NOSIG RMK 1CU015 3AC070 5AC180 A2963
METAR RJBB 270630Z 01004KT 9999 FEW015 SCT070 BKN180 22/20 Q1003 NOSIG RMK 1CU015 3AC070 6AC180 A2963
METAR RJBB 270700Z VRB02KT 9999 FEW015 SCT070 BKN150 23/21 Q1003 BECMG 21008KT RMK 1CU015 3AC070 6AC150 A2963
METAR RJBB 270730Z 22003KT 200V270 9999 FEW015 SCT070 BKN150 23/21 Q1003 NOSIG RMK 1CU015 3AC070 6AC150 A2962
METAR RJBB 270800Z 36005KT 9999 VCSH FEW015 SCT070 BKN120 22/20 Q1003 BECMG 22012KT RMK 1CU015 3AC070 5AC120 A2962
METAR RJBB 270830Z 03006KT 9999 FEW015 SCT070 BKN120 22/20 Q1002 NOSIG RMK 1CU015 3AC070 7AC120 A2961
METAR RJBB 270900Z 31005KT 9999 FEW015 SCT045 BKN120 21/20 Q1003 BECMG 34005KT RMK 1CU015 3CU045 7AC120 A2962
METAR RJBB 270930Z 30003KT 9999 FEW015 SCT045 BKN120 21/20 Q1003 BECMG 34005KT RMK 1CU015 3CU045 7AC120 A2963
METAR RJBB 271000Z 23003KT 200V280 9999 VCSH FEW015 SCT040 BKN090 22/21 Q1003 BECMG 34005KT RMK 1CU015 3CU040 5AC090 A2963
METAR RJBB 271030Z 21008KT 180V240 9999 -SHRA FEW015 SCT040 BKN090 23/22 Q1003 TEMPO 4000 SHRA BR RMK 1CU015 3CU040 5AC090 A2964
METAR RJBB 271100Z 19008KT 9999 -SHRA FEW015 SCT035 BKN070 23/22 Q1003 TEMPO 4000 SHRA BR RMK 1CU015 3CU035 5AC070 A2964
METAR RJBB 271130Z 20005KT 9999 -SHRA FEW008 SCT035 BKN080 23/22 Q1004 TEMPO 4000 SHRA BR RMK 1ST008 4CU035 5AC080 A2966
SPECI RJBB 271150Z 19009KT 9999 SHRA FEW008 SCT030 BKN070 23/22 Q1004 RMK 1ST008 4CU030 5AC070 A2966
METAR RJBB 271200Z 19008KT 9999 SHRA FEW008 SCT030 BKN070 23/22 Q1004 TEMPO 4000 SHRA BR RMK 1ST008 4CU030 5AC070 A2965
SPECI RJBB 271212Z 19007KT 9999 -SHRA FEW008 FEW025CB SCT035 BKN080 23/22 Q1004 RMK 1ST008 1CB025 4CU035 5AC080 A2965 CB 20KM SW MOV NE
METAR RJBB 271230Z 18008KT 9999 -SHRA FEW008 FEW025CB SCT035 BKN070 23/22 Q1004 TEMPO 4000 SHRA BR RMK 1ST008 1CB025 4CU035 5AC070 A2965 CB 20KM SW MOV E
METAR RJBB 271300Z 17006KT 140V200 9999 -SHRA FEW008 FEW025CB SCT035 BKN080 24/23 Q1004 TEMPO 4000 SHRA BR RMK 1ST008 1CB025 3CU035 5AC080 A2965 CB 20KM SE-S MOV E
METAR RJBB 271330Z 21010KT 9999 -SHRA FEW006 SCT015 BKN035 23/23 Q1003 NOSIG RMK 1ST006 3CU015 5CU035 A2964
METAR RJBB 271400Z AUTO 22010KT 9999 OVC009 //////TCU 22/22 Q1003 NOSIG RMK A2964 TCU 15KM W-NW MOV E AND 25KM S AND FM 40KM E TO 35KM SE MOV UNKNOWN
METAR RJBB 271430Z AUTO 22011KT 9999 FEW010 OVC011 //////CB 23/22 Q1003 NOSIG RMK A2964 CB 20KM W MOV E TCU 10KM N MOV E
SPECI RJBB 271427Z AUTO 22011KT 9999 FEW010 OVC011 //////CB 23/22 Q1003 RMK A2964 CB 30KM W MOV NE TCU 10KM NW-N MOV E
SPECI RJBB 271440Z AUTO 22009KT 9999 TS FEW010 OVC012 //////CB 23/22 Q1003 RMK A2963 TS 20KM W-NW MOV NE
SPECI RJBB 271452Z AUTO 21012KT 9999 TS FEW012 OVC015 //////CB 23/22 Q1003 RMK A2963 TS 15KM NW MOV NE
SPECI RJBB 271459Z AUTO 21013KT 9999 TS OVC012 //////CB 23/22 Q1003 RMK A2963 TS 20KM NW MOV NE
METAR RJBB 271500Z AUTO 21013KT 9999 OVC012 //////CB 23/22 Q1003 NOSIG RMK A2963 CB 5KM NW-N MOV NE
SPECI RJBB 271505Z AUTO 22012KT 9999 TS FEW014 OVC017 //////CB 23/22 Q1003 RMK A2963 TS 10KM N MOV NE
SPECI RJBB 271515Z AUTO 22011KT 9999 BKN016 OVC023 //////TCU 23/22 Q1003 RMK A2962 TCU 5KM NW-N MOV NE
METAR RJBB 271530Z AUTO 21008KT 9999 FEW017 BKN019 BKN023 //////CB 23/22 Q1003 NOSIG RMK A2962 CB 15KM N-NE MOV NE TCU 35KM W MOV NE
METAR RJBB 271600Z AUTO 21005KT 9999 FEW017 SCT019 BKN023 //////TCU 23/22 Q1002 NOSIG RMK A2960 TCU 20KM W STNR AND 35KM NE MOV NE
METAR RJBB 271630Z AUTO 21013KT 9999 BKN017 BKN019 OVC022 //////TCU 24/22 Q1002 NOSIG RMK A2960 TCU 10KM NW MOV NE
SPECI RJBB 271651Z AUTO 20012KT 9999 BKN014 OVC017 //////TCU 23/22 Q1002 RMK A2960 TCU 10KM NW-NE MOV NE
METAR RJBB 271700Z AUTO 21012KT 9999 OVC014 //////TCU 23/22 Q1002 TEMPO 4000 SHRA BR FEW005 BKN008 BKN015 RMK A2959 TCU 15KM N-NE MOV NE AND 40KM SW MOV UNKNOWN
SPECI RJBB 271722Z AUTO 20022KT 9999 BKN013 OVC070 //////CB 23/22 Q1002 RMK A2959 CB FM 30KM N TO 40KM NE MOV NE
METAR RJBB 271730Z AUTO 20022KT 9999 -RA BKN013 BKN042 OVC120 //////TCU 23/22 Q1002 TEMPO 4000 SHRA BR FEW005 BKN008 BKN015 RMK A2959 TCU 35KM S MOV UNKNOWN AND 40KM N-NE MOV NE
SPECI RJBB 271805Z AUTO 21022KT 9999 -RA FEW010 SCT017 BKN041 //////TCU 23/22 Q1002 RMK A2960 TCU OHD MOV NE
METAR RJBB 271800Z AUTO 21022KT 8000 -RA BKN010 BKN024 OVC130 //////TCU 23/22 Q1002 TEMPO 4000 SHRA BR FEW005 BKN008 BKN015 RMK A2960 TCU OHD MOV NE
SPECI RJBB 271829Z AUTO 21016KT 5000 RA BR FEW011 SCT041 BKN046 //////TCU 22/21 Q1002 RMK A2960 RI003 TCU 15KM W MOV N AND 30KM NE MOV NE
SPECI RJBB 271843Z AUTO 21014KT 6000 -RA FEW011 SCT050 BKN120 //////TCU 22/21 Q1002 RMK A2959 TCU 25KM SE MOV NW AND 30KM N MOV NE
METAR RJBB 271830Z AUTO 21016KT 5000 RA BR FEW011 SCT041 BKN050 //////TCU 22/21 Q1002 TEMPO 4000 SHRA BR FEW005 BKN008 BKN015 RMK A2960 RI003 TCU 20KM NW-N AND 30KM NE MOV NE AND 35KM SE MOV E
SPECI RJBB 271849Z AUTO 20016KT 7000 RA FEW009 SCT010 BKN110 //////TCU 22/21 Q1002 RMK A2959 RI003 TCU 25KM SE MOV NW AND 30KM N MOV NE
SPECI RJBB 271859Z AUTO 20018KT 9000 RA FEW008 SCT010 BKN014 //////TCU 22/22 Q1001 RMK A2958 RI003 TCU 35KM N MOV N
METAR RJBB 271900Z AUTO 20018KT 9999 RA BKN010 BKN015 BKN120 //////TCU 22/22 Q1001 TEMPO 4000 SHRA BR FEW005 BKN008 BKN015 RMK A2958 RI003 TCU 20KM NW-N MOV N
SPECI RJBB 271912Z AUTO 21017KT 9999 -RA BKN010 BKN029 BKN110 //////TCU 22/22 Q1001 RMK A2957 TCU 15KM NW-N MOV NE
SPECI RJBB 271919Z AUTO 20016KT 9999 -RA FEW009 SCT018 BKN070 //////TCU 22/22 Q1001 RMK A2957 TCU 15KM NW-N MOV NE
SPECI RJBB 271933Z AUTO 19017G27KT 9999 -RA FEW010 SCT050 BKN130 //////TCU 22/22 Q1001 RMK A2957 TCU 35KM N MOV N
METAR RJBB 271930Z AUTO 19016KT 9999 -RA FEW009 SCT017 BKN130 //////TCU 22/22 Q1001 TEMPO 4000 SHRA BR FEW005 BKN008 BKN015 RMK A2957 TCU 35KM N MOV N
METAR RJBB 272000Z AUTO 19017KT 9999 -RA FEW015 SCT130 BKN140 22/21 Q1001 TEMPO 4000 SHRA BR FEW005 BKN008 BKN015 RMK A2958
SPECI RJBB 272017Z AUTO 20017G27KT 9999 -RA FEW015 SCT017 BKN070 22/21 Q1002 RMK A2959
METAR RJBB 272030Z AUTO 19018KT 9999 -RA FEW015 SCT060 BKN100 22/21 Q1002 TEMPO 4000 SHRA BR FEW005 BKN008 BKN015 RMK A2959
SPECI RJBB 272045Z AUTO 20017KT 9999 -RA BKN013 OVC100 22/21 Q1002 RMK A2960
SPECI RJBB 272052Z AUTO 20019KT 9999 -RA FEW013 SCT041 BKN090 22/21 Q1002 RMK A2959
METAR RJBB 272100Z 19022KT 9999 -SHRA FEW006 SCT015 BKN045 22/21 Q1002 TEMPO 4000 SHRA BR FEW005 BKN008 BKN015 RMK 1ST006 3CU015 5CU045 A2959
METAR RJBB 272130Z 20016KT 9999 -SHRA FEW006 SCT045 BKN060 22/21 Q1002 TEMPO 4000 SHRA BR FEW005 BKN008 BKN015 BECMG 18006KT RMK 1ST006 4CU045 5SC060 A2959
METAR RJBB 272200Z 19011KT 9999 -SHRA FEW006 SCT040 BKN070 21/20 Q1001 TEMPO 4000 SHRA BR FEW005 BKN008 BKN015 RMK 1ST006 4CU040 6AC070 A2959
METAR RJBB 272230Z 15007KT 9999 SHRA FEW006 SCT040 BKN070 22/21 Q1001 TEMPO 4000 SHRA BR FEW005 BKN008 BKN015 RMK 1ST006 4CU040 6AC070 A2959
SPECI RJBB 272242Z 17008KT 9999 -SHRA FEW006 SCT040 BKN060 22/21 Q1002 RMK 1ST006 3CU040 6SC060 A2959
METAR RJBB 272300Z 18009KT 9999 -SHRA FEW008 SCT040 BKN060 22/20 Q1002 TEMPO 4000 SHRA BR FEW005 BKN008 BKN015 RMK 1ST008 3CU040 6SC060 A2959
METAR RJBB 272330Z 18008KT 9999 -SHRA FEW008 SCT040 BKN060 22/20 Q1001 TEMPO 4000 SHRA BR FEW005 BKN008 BKN015 RMK 1ST008 4CU040 6SC060 A2958
METAR RJBB 280000Z 16005KT 9999 -SHRA FEW008 SCT040 BKN060 22/21 Q1001 TEMPO 4000 SHRA BR FEW005 BKN008 BKN015 RMK 1ST008 3CU040 6SC060 A2957
METAR RJBB 280030Z 14004KT 100V180 9999 -SHRA FEW008 SCT030 BKN060 23/20 Q1000 TEMPO 4000 SHRA BR FEW005 BKN008 BKN015 RMK 1ST008 3CU030 6SC060 A2955
METAR RJBB 280100Z 03006KT 6000 -SHRA BR FEW008 SCT030 BKN060 20/19 Q1000 TEMPO 4000 SHRA BR FEW005 BKN008 BKN015 RMK 1ST008 3CU030 6SC060 A2953
SPECI RJBB 280110Z 03010KT 6000 SHRA BR FEW008 SCT030 BKN060 20/19 Q1000 RMK 1ST008 4CU030 6SC060 A2953
SPECI RJBB 280119Z 03009KT 4500 SHRA BR FEW006 SCT020 BKN040 20/19 Q1000 RMK 1ST006 3CU020 5CU040 A2953
METAR RJBB 280130Z 04007KT 3000 R06R/2000N R06L/2000N +SHRA BR FEW004 SCT010 BKN020 20/20 Q1000 TEMPO FEW005 BKN008 BKN015 RMK 1ST004 3ST010 5CU020 A2954
SPECI RJBB 280142Z 05009KT 3000 +SHRA BR FEW002 SCT006 BKN010 20/20 Q1000 RMK 1ST002 3ST006 5ST010 A2953
METAR RJBB 280200Z 04013KT 3000 SHRA BR FEW002 SCT006 BKN010 20/20 Q0999 TEMPO FEW005 BKN008 BKN015 RMK 1ST002 3ST006 5ST010 A2951 MOD TURB OBS AT 0143Z AROUND B6R11 BTN 4000FT AND 6000FT IN CMB B738
SPECI RJBB 280207Z 04013KT 2000 R06R/P2000N R06L/P2000N +SHRA BR FEW002 SCT006 BKN008 20/20 Q0999 RMK 1ST002 3ST006 5ST008 A2951
METAR RJBB 280230Z 05011KT 2000 R06R/P2000N R06L/2000N +SHRA BR FEW002 SCT006 BKN008 FEW020CB 20/20 Q0998 NOSIG RMK 1ST002 3ST006 5ST008 2CB020 A2948 CB 15KM W MOV N
SPECI RJBB 280240Z 04010KT 2000 R06R/P2000N R06L/2000N +SHRA BR FEW001 SCT003 BKN005 SCT020CB 20/20 Q0998 RMK 1ST001 3ST003 5ST005 3CB020 A2950 CB OHD MOV N
METAR RJBB 280300Z 01008KT 2000 R06R/P2000N R06L/1900D +SHRA BR FEW001 SCT003 BKN005 20/20 Q0999 TEMPO 1500 +SHRA BR BECMG 17015KT RMK 1ST001 3ST003 5ST005 A2950
SPECI RJBB 280317Z 04005KT 350V160 4000 R24L/P2000N R24R/1200VP2000U SHRA BR FEW001 SCT003 BKN005 21/21 Q0998 RMK 1ST001 3ST003 5ST005 A2948
METAR RJBB 280330Z 20016G28KT 160V240 6000 SHRA BR FEW001 SCT003 BKN008 21/21 Q0998 TEMPO 2000 +SHRA BR FEW003 BKN005 BKN008 RMK 1ST001 3ST003 5ST008 A2947
SPECI RJBB 280323Z 20010KT 4000 SHRA BR FEW001 SCT003 BKN008 22/21 Q0998 RMK 1ST001 3ST003 5ST008 A2948
SPECI RJBB 280341Z 18021KT 8000 SHRA FEW005 SCT015 BKN020 21/20 Q0997 RMK 1ST005 3CU015 5CU020 A2945 P/FR
SPECI RJBB 280403Z 17016G26KT 4500 SHRA BR FEW005 SCT015 BKN020 22/19 Q0996 RMK 1ST005 3CU015 5CU020 A2942 P/FR
METAR RJBB 280400Z 17016KT 8000 SHRA FEW005 SCT015 BKN020 22/20 Q0996 BECMG 20026KT TEMPO 2000 +SHRA BR FEW003 BKN005 BKN008 RMK 1ST005 3CU015 5CU020 A2943 MOD TURB OBS AT 0342Z OVER OLIVE BTN 16000FT AND 19000FT IN CMB B738 AND MOD TURB OBS AT 0342Z AROUND KARIN BTN FL160 AND 13000FT IN DES A320 P/FR
SPECI RJBB 280417Z 17015KT 8000 SHRA FEW005 SCT015 BKN020 22/19 Q0996 RMK 1ST005 3CU015 5CU020 A2942 MOD TURB OBS AT 0354Z 10NM S KTE 17000FT LEVEL DH8D P/FR
METAR RJBB 280430Z 16010KT 4500 SHRA BR FEW005 SCT015 BKN020 22/20 Q0995 TEMPO 1500 +SHRA BR FEW003 BKN005 BKN008 RMK 1ST005 3CU015 5CU020 A2941
METAR RJBB 280500Z 14014KT 4000 SHRA BR FEW005 SCT015 BKN020 22/20 Q0995 BECMG 36017KT TEMPO 1500 +SHRA BR FEW003 BKN005 BKN008 RMK 1ST005 3CU015 5CU020 A2938
SPECI RJBB 280509Z 20011KT 170V230 3000 R24L/P2000N R24R/P2000N +SHRA BR FEW005 SCT015 BKN020 22/21 Q0994 RMK 1ST005 3CU015 5CU020 A2937 P/FR
SPECI RJBB 280518Z 25015KT 2000 R24L/P2000N R24R/1200VP2000N +SHRA BR FEW003 SCT010 BKN015 FEW020CB 18/17 Q0995 RMK 1ST003 3ST010 5CU015 1CB020 A2940 CB SW
SPECI RJBB 280525Z 25016KT 2000 R24L/1100VP2000D R24R/1100VP2000U +SHRA BR FEW003 SCT010 BKN015 FEW020CB 18/17 Q0996 RMK 1ST003 3ST010 5CU015 1CB020 A2941 CB SW
METAR RJBB 280530Z 25018KT 2000 R24L/1100VP2000U R24R/1200VP2000D +SHRA BR FEW003 SCT010 BKN015 FEW020CB 18/17 Q0995 BECMG 35017KT TEMPO 1500 +SHRA BR FEW003 BKN005 BKN008 RMK 1ST003 3ST010 5CU015 1CB020 A2940 CB 30KM S-SW MOV NE
METAR RJBB 280600Z 27006KT 2000 R24L/1400VP2000U R24R/1600D +SHRA BR FEW003 SCT010 BKN015 FEW020CB 17/17 Q0995 BECMG 34015KT TEMPO 1500 +SHRA BR FEW003 BKN005 BKN008 RMK 1ST003 3ST010 5CU015 1CB020 A2939 CB 20KM SE-SW MOV NE
METAR RJBB 280630Z VRB03KT 2000 R06R/2000N R06L/1100VP2000U +SHRA BR FEW001 SCT005 BKN010 FEW020CB 18/17 Q0994 BECMG 34015KT TEMPO 1500 +SHRA BR FEW003 BKN005 BKN008 RMK 1ST001 3ST005 5CU010 1CB020 A2937 CB 30KM SE MOV E
SPECI RJBB 280635Z 10010KT 2000 R06R/1600VP2000N R06L/2000N +SHRA BR FEW001 SCT005 BKN010 FEW020CB 18/17 Q0994 RMK 1ST001 3ST005 5CU010 1CB020 A2938 CB 30KM SE MOV NE
METAR RJBB 280700Z 07018KT 2000 SHRA BR FEW001 SCT005 BKN010 FEW020CB 17/17 Q0994 BECMG 34015KT TEMPO FEW003 BKN005 BKN008 RMK 1ST001 3ST005 5CU010 1CB020 A2937 MOD TURB OBS AT 0647Z 20NM E WENDY BTN 11000FT AND 13000FT INC IN CMB A320 CB 30KM N MOV NE
SPECI RJBB 280711Z 07019KT 3000 SHRA BR FEW001 SCT005 BKN010 17/17 Q0994 RMK 1ST001 3ST005 5CU010 A2938
SPECI RJBB 280721Z 08013KT 3000 R06R/P2000N R06L/P2000N SHRA BR FEW001 SCT005 BKN008 17/17 Q0995 RMK 1ST001 3ST005 5ST008 A2939 P/RR
METAR RJBB 280730Z 10005KT 040V160 5000 SHRA BR FEW001 SCT005 BKN008 17/17 Q0995 BECMG 34015KT TEMPO 3000 SHRA BR FEW003 BKN005 BKN008 RMK 1ST001 3ST005 5ST008 A2940 P/RR
SPECI RJBB 280744Z 35013KT 3000 R06R/2000N R06L/2000N +SHRA BR FEW001 SCT005 BKN008 FEW020CB 17/17 Q0996 RMK 1ST001 3ST005 5ST008 1CB020 A2942 CB NE P/RR
METAR RJBB 280800Z 02010KT 4000 SHRA BR FEW001 SCT005 BKN010 17/17 Q0996 TEMPO 3000 SHRA BR FEW003 BKN005 BKN008 RMK 1ST001 3ST005 5CU010 A2943
SPECI RJBB 280814Z 31015KT 5000 SHRA BR FEW001 SCT005 BKN010 17/16 Q0997 RMK 1ST001 3ST005 5CU010 A2944
METAR RJBB 280830Z 30021KT 4000 SHRA BR FEW001 SCT005 BKN008 16/16 Q0997 BECMG 34015KT TEMPO 3000 SHRA BR FEW003 BKN005 BKN008 RMK 1ST001 3ST005 5ST008 A2945
METAR RJBB 280900Z 31025KT 4000 -SHRA BR FEW001 SCT005 BKN008 16/16 Q0998 BECMG 34018KT 9999 NSW FEW008 SCT015 BKN025 RMK 1ST001 3ST005 5ST008 A2947
SPECI RJBB 280914Z 31023KT 9999 -SHRA FEW005 SCT010 BKN015 17/16 Q0998 RMK 1ST005 3ST010 5CU015 A2947
METAR RJBB 280930Z 32025KT 9999 -SHRA FEW008 SCT015 BKN030 17/15 Q0998 NOSIG RMK 1ST008 3CU015 5CU030 A2948
METAR RJBB 281000Z 31025KT 9999 -SHRA FEW005 SCT015 BKN025 17/15 Q0999 NOSIG RMK 1ST005 3CU015 5CU025 A2953 P/RR
METAR RJBB 281030Z 32020KT 9999 -SHRA FEW005 SCT010 BKN015 17/15 Q1001 BECMG 35015KT RMK 1ST005 3ST010 5CU015 A2957 P/RR
METAR RJBB 281100Z 32018KT 9999 -SHRA FEW005 SCT015 BKN020 17/15 Q1001 BECMG 35015KT RMK 1ST005 3CU015 5CU020 A2959
METAR RJBB 281130Z 33018KT 9999 -SHRA FEW008 SCT015 BKN025 17/15 Q1002 NOSIG RMK 1ST008 3CU015 5CU025 A2959
METAR RJBB 281200Z 34019KT 9999 -SHRA FEW008 SCT015 BKN025 17/15 Q1002 NOSIG RMK 1ST008 3CU015 5CU025 A2961
SPECI RJBB 281227Z 04011KT 9999 -SHRA FEW005 SCT010 BKN020 16/15 Q1003 RMK 1ST005 3ST010 5CU020 A2963
METAR RJBB 281230Z 05011KT 9999 -SHRA FEW005 SCT010 BKN020 16/15 Q1003 NOSIG RMK 1ST005 3ST010 5CU020 A2963
METAR RJBB 281300Z 01005KT 9999 FEW005 SCT015 BKN020 16/15 Q1003 NOSIG RMK 1ST005 3CU015 5CU020 A2964
METAR RJBB 281330Z VRB02KT 9999 VCSH FEW005 SCT015 BKN020 17/15 Q1004 BECMG 36012KT RMK 1ST005 3CU015 5CU020 A2965
SPECI RJBB 281350Z 32010KT 280V360 9999 FEW005 SCT015 BKN025 17/14 Q1004 RMK 1ST005 3CU015 5CU025 A2966
METAR RJBB 281400Z AUTO 32016KT 9999 FEW017 BKN026 OVC034 17/14 Q1004 BECMG 34012KT RMK A2966
METAR RJBB 281430Z AUTO 32017KT 9999 OVC028 17/14 Q1004 BECMG 34012KT RMK A2966
METAR RJBB 281500Z AUTO 33018KT 9999 OVC030 17/14 Q1004 NOSIG RMK A2967
METAR RJBB 281530Z AUTO 34015KT 9999 OVC029 17/14 Q1005 NOSIG RMK A2969
METAR RJBB 281600Z AUTO 34015KT 9999 BKN025 BKN030 BKN032 17/14 Q1005 NOSIG RMK A2970
METAR RJBB 281630Z AUTO 02008KT 320V040 9999 FEW027 SCT034 BKN037 16/13 Q1006 NOSIG RMK A2972
METAR RJBB 281700Z AUTO 33010KT 9999 FEW042 BKN048 OVC050 17/13 Q1006 NOSIG RMK A2972
METAR RJBB 281730Z AUTO 33009KT 9999 OVC050 17/13 Q1006 NOSIG RMK A2973
METAR RJBB 281800Z AUTO 33008KT 9999 FEW050 BKN060 17/13 Q1007 NOSIG RMK A2974
METAR RJBB 281830Z AUTO 34008KT 9999 NSC 17/13 Q1007 NOSIG RMK A2976
METAR RJBB 281900Z AUTO 32008KT 9999 SCT021 BKN037 BKN039 17/13 Q1008 BECMG 33008KT RMK A2978
METAR RJBB 281930Z AUTO 31011KT 9999 FEW017 BKN041 17/13 Q1009 BECMG 33010KT RMK A2979
METAR RJBB 282000Z AUTO 31012KT 9999 FEW039 BKN041 17/14 Q1009 BECMG 33010KT RMK A2982
METAR RJBB 282030Z AUTO 31012KT 9999 FEW037 BKN043 OVC044 17/14 Q1010 BECMG 35009KT RMK A2983
METAR RJBB 282100Z 32010KT 9999 FEW008 SCT030 BKN040 17/14 Q1010 BECMG 35009KT RMK 1ST008 3CU030 5CU040 A2984
METAR RJBB 282130Z 34009KT 9999 FEW008 BKN040 17/14 Q1011 NOSIG RMK 1ST008 6CU040 A2985
METAR RJBB 282200Z 34010KT 9999 FEW008 BKN040 17/13 Q1011 NOSIG RMK 1ST008 5CU040 A2986
METAR RJBB 282230Z 35008KT 9999 FEW008 SCT040 18/12 Q1011 NOSIG RMK 1ST008 3CU040 A2987
METAR RJBB 282300Z 36012KT 9999 FEW015 18/11 Q1011 NOSIG RMK 1CU015 A2987
METAR RJBB 282330Z 36015KT 9999 FEW015 18/11 Q1011 NOSIG RMK 1CU015 A2987
METAR RJBB 290000Z 01012KT 9999 FEW015 19/12 Q1012 NOSIG RMK 1CU015 A2989
METAR RJBB 290030Z 03009KT 9999 FEW015 19/11 Q1012 BECMG 26005KT RMK 1CU015 A2988
METAR RJBB 290100Z 03009KT 9999 FEW015 19/12 Q1012 BECMG 26005KT RMK 1CU015 A2989
METAR RJBB 290130Z 04009KT 9999 FEW015 20/12 Q1012 BECMG 22005KT RMK 1CU015 A2989
METAR RJBB 290200Z 04008KT 9999 FEW015 20/11 Q1012 BECMG 22005KT RMK 1CU015 A2989
METAR RJBB 290230Z 04006KT 9999 FEW015 19/10 Q1012 NOSIG RMK 1CU015 A2989
METAR RJBB 290300Z 34003KT 300V030 9999 FEW015 20/11 Q1012 BECMG 22005KT RMK 1CU015 A2990
METAR RJBB 290330Z 28004KT 260V330 9999 FEW015 20/12 Q1012 NOSIG RMK 1CU015 A2991
METAR RJBB 290400Z 22005KT 170V250 9999 FEW015 20/12 Q1013 NOSIG RMK 1CU015 A2992
METAR RJBB 290430Z 22007KT 9999 FEW015 21/13 Q1013 NOSIG RMK 1CU015 A2992
METAR RJBB 290500Z 22004KT 180V250 9999 FEW020 20/11 Q1013 NOSIG RMK 1CU020 A2992
METAR RJBB 290530Z 22004KT 150V320 9999 FEW020 21/13 Q1013 NOSIG RMK 1CU020 A2992
METAR RJBB 290600Z 29005KT 9999 FEW020 20/13 Q1012 NOSIG RMK 1CU020 A2991
METAR RJBB 290630Z 32004KT 9999 FEW020 21/13 Q1012 BECMG 35005KT RMK 1CU020 A2990
METAR RJBB 290700Z 33004KT 310V010 9999 FEW020 21/12 Q1012 NOSIG RMK 1CU020 A2989
METAR RJBB 290730Z 33003KT 290V360 9999 FEW030 21/12 Q1012 NOSIG RMK 1CU030 A2989
METAR RJBB 290800Z 31004KT 9999 FEW030 21/13 Q1012 NOSIG RMK 1CU030 A2990
METAR RJBB 290830Z 33004KT 9999 FEW030 21/14 Q1012 NOSIG RMK 1CU030 A2990
METAR RJBB 290900Z 36006KT 9999 FEW030 21/14 Q1012 NOSIG RMK 1CU030 A2989
METAR RJBB 290930Z 35004KT 9999 FEW030 SCT/// 21/15 Q1012 NOSIG RMK 1CU030 A2991
METAR RJBB 291000Z 34006KT 9999 FEW030 BKN/// 20/15 Q1013 NOSIG RMK 1CU030 A2992
METAR RJBB 291030Z 36004KT 9999 FEW030 BKN/// 20/15 Q1013 NOSIG RMK 1CU030 A2992
METAR RJBB 291100Z 33007KT 9999 FEW030 BKN/// 20/15 Q1013 NOSIG RMK 1CU030 A2993
METAR RJBB 291130Z 36006KT 9999 FEW030 BKN/// 20/16 Q1013 NOSIG RMK 1CU030 A2992
METAR RJBB 291200Z 02008KT 9999 FEW030 BKN/// 20/15 Q1013 NOSIG RMK 1CU030 A2993
METAR RJBB 291230Z VRB02KT 9999 FEW030 BKN/// 19/14 Q1013 BECMG 05008KT RMK 1CU030 A2994
METAR RJBB 291300Z 05006KT 9999 FEW030 BKN/// 19/14 Q1014 NOSIG RMK 1CU030 A2994
METAR RJBB 291330Z 04007KT 9999 FEW030 SCT/// 19/15 Q1013 NOSIG RMK 1CU030 A2993
METAR RJBB 291400Z AUTO 03011KT 9999 NCD 19/15 Q1013 NOSIG RMK A2992
SPECI RJBB 291429Z AUTO 09006KT 050V120 9999 NCD 18/14 Q1013 RMK A2993
METAR RJBB 291430Z AUTO 10005KT 060V120 9999 NCD 18/14 Q1013 NOSIG RMK A2994
METAR RJBB 291500Z AUTO 04006KT 9999 NCD 18/15 Q1013 NOSIG RMK A2994
METAR RJBB 291530Z AUTO 02014KT 9999 NCD 18/14 Q1014 NOSIG RMK A2995
METAR RJBB 291600Z AUTO 06010KT 9999 NCD 17/13 Q1014 NOSIG RMK A2994
METAR RJBB 291630Z AUTO 11005KT 070V130 9999 NCD 17/13 Q1013 NOSIG RMK A2994
METAR RJBB 291700Z AUTO 11003KT 060V150 9999 NCD 17/13 Q1014 NOSIG RMK A2995
METAR RJBB 291730Z AUTO VRB02KT 9999 NCD 16/13 Q1014 NOSIG RMK A2997
METAR RJBB 291800Z AUTO 05004KT 9999 NCD 16/13 Q1015 NOSIG RMK A2999
METAR RJBB 291830Z AUTO 09007KT 9999 NCD 16/13 Q1014 NOSIG RMK A2995 P/FR
METAR RJBB 291900Z AUTO 08004KT 9999 NCD 15/13 Q1014 NOSIG RMK A2995
METAR RJBB 291930Z AUTO 07005KT 9999 NCD 15/13 Q1014 NOSIG RMK A2996
METAR RJBB 292000Z AUTO 09006KT 9999 NCD 16/13 Q1014 NOSIG RMK A2997
METAR RJBB 292030Z AUTO 08005KT 9999 NCD 16/12 Q1014 NOSIG RMK A2997
METAR RJBB 292100Z 09005KT CAVOK 16/13 Q1014 NOSIG RMK A2996
METAR RJBB 292130Z 05005KT 9999 FEW030 17/13 Q1014 NOSIG RMK 1CU030 A2996
METAR RJBB 292200Z 05007KT 9999 FEW030 18/13 Q1014 NOSIG RMK 1CU030 A2996
METAR RJBB 292230Z 03007KT 9999 FEW030 18/13 Q1014 NOSIG RMK 1CU030 A2997
METAR RJBB 292300Z 03008KT 9999 FEW030 SCT/// 18/13 Q1014 NOSIG RMK 1CU030 A2997
METAR RJBB 292330Z 03006KT 9999 FEW030 BKN/// 19/14 Q1015 NOSIG RMK 1CU030 A2998
METAR RJBB 300000Z 02006KT 9999 FEW030 BKN/// 19/14 Q1015 NOSIG RMK 1CU030 A2997
METAR RJBB 300030Z 01004KT 9999 FEW030 BKN/// 19/13 Q1015 NOSIG RMK 1CU030 A2998
METAR RJBB 300100Z 01007KT 9999 FEW030 BKN/// 20/14 Q1014 BECMG FM0230 29007KT RMK 1CU030 A2997
METAR RJBB 300130Z 02007KT 9999 FEW035 BKN/// 20/14 Q1014 BECMG FM0230 TL0300 29007KT RMK 1CU035 A2995
METAR RJBB 300200Z 35003KT 310V020 9999 FEW035 BKN/// 21/14 Q1014 BECMG FM0230 TL0300 29007KT RMK 1CU035 A2995
METAR RJBB 300230Z 30005KT 9999 FEW035 BKN/// 21/15 Q1014 NOSIG RMK 1CU035 A2995
METAR RJBB 300300Z 30005KT 9999 FEW035 BKN/// 21/15 Q1014 NOSIG RMK 1CU035 A2995
METAR RJBB 300330Z 28005KT 9999 FEW035 BKN/// 21/15 Q1013 NOSIG RMK 1CU035 A2994
METAR RJBB 300400Z 25007KT 9999 FEW030 BKN/// 22/14 Q1013 NOSIG RMK 1CU030 A2992
METAR RJBB 300430Z 23010KT 9999 FEW030 BKN/// 22/15 Q1013 NOSIG RMK 1CU030 A2992
METAR RJBB 300500Z 23010KT 9999 FEW030 BKN120 BKN/// 23/15 Q1013 NOSIG RMK 1CU030 5AC120 A2992
METAR RJBB 300530Z 23009KT 9999 FEW030 BKN120 BKN/// 22/17 Q1012 NOSIG RMK 1CU030 5AC120 A2990
METAR RJBB 300600Z 24010KT 9999 FEW025 BKN120 BKN/// 22/18 Q1012 NOSIG RMK 1CU025 5AC120 A2990
METAR RJBB 300630Z 24009KT 9999 FEW025 BKN120 BKN/// 22/18 Q1012 NOSIG RMK 1CU025 5AC120 A2988
METAR RJBB 300700Z 24012KT 9999 FEW025 BKN120 21/17 Q1012 NOSIG RMK 1CU025 7AC120 A2989
METAR RJBB 300730Z 24012KT 9999 FEW025 BKN120 21/17 Q1012 NOSIG RMK 1CU025 7AC120 A2988
METAR RJBB 300800Z 22011KT 9999 FEW025 BKN120 22/17 Q1011 NOSIG RMK 1CU025 7AC120 A2987
METAR RJBB 300830Z 22011KT 9999 FEW025 BKN120 22/16 Q1011 NOSIG RMK 1CU025 7AC120 A2987
METAR RJBB 300900Z 25008KT 9999 FEW020 BKN120 BKN/// 21/17 Q1012 NOSIG RMK 1CU020 5AC120 A2989
METAR RJBB 300930Z 25011KT 9999 FEW020 SCT060 BKN120 20/17 Q1012 NOSIG RMK 1CU020 3SC060 7AC120 A2990
METAR RJBB 301000Z 23012KT 9999 FEW020 BKN050 BKN100 20/17 Q1012 NOSIG RMK 1CU020 5SC050 7AC100 A2990 MOD TURB OBS AT 0934Z 10NM SW BECKY 19000FT B788
METAR RJBB 301030Z 19009KT 9999 VCSH FEW020 SCT050 BKN100 20/17 Q1011 NOSIG RMK 1CU020 4SC050 6AC100 A2988
METAR RJBB 301100Z 21007KT 9999 -SHRA FEW020 SCT040 BKN050 21/17 Q1012 NOSIG RMK 1CU020 3CU040 6SC050 A2988
METAR RJBB 301130Z 25010KT 9999 -SHRA FEW020 SCT040 BKN050 20/18 Q1013 BECMG 19008KT RMK 1CU020 3CU040 6SC050 A2991
METAR RJBB 301200Z 22009KT 9999 -SHRA FEW020 SCT030 BKN040 19/18 Q1013 NOSIG RMK 1CU020 3CU030 5CU040 A2992
METAR RJBB 301230Z 17006KT 9999 -SHRA FEW020 SCT030 BKN040 19/18 Q1013 NOSIG RMK 1CU020 3CU030 5CU040 A2992

■ TAF(飛行場予報)

TAF RJBB 301105Z 3012/3118 19007KT 9999 FEW008 BKN045
         BECMG 3014/3016 06005KT

お知らせ

新着情報

  • 太陽光発電量推算
  • 気象予報士試験過去問・講座
  • Yahoo Weather shop
  • メルカリ Weather shop

ご案内